sensor_id;sensor_type;location;lat;lon;timestamp;pressure;altitude;pressure_sealevel;temperature
18782;BMP180;9519;51.890;8.970;2023-04-09T00:04:41;100042.00;;;3.10
18782;BMP180;9519;51.890;8.970;2023-04-09T00:09:43;100050.00;;;3.20
18782;BMP180;9519;51.890;8.970;2023-04-09T00:14:47;100060.00;;;3.30
18782;BMP180;9519;51.890;8.970;2023-04-09T00:19:49;100043.00;;;3.30
18782;BMP180;9519;51.890;8.970;2023-04-09T00:24:51;100063.00;;;3.40
18782;BMP180;9519;51.890;8.970;2023-04-09T00:29:54;100043.00;;;3.40
18782;BMP180;9519;51.890;8.970;2023-04-09T00:34:56;100054.00;;;3.40
18782;BMP180;9519;51.890;8.970;2023-04-09T00:39:58;100057.00;;;3.30
18782;BMP180;9519;51.890;8.970;2023-04-09T00:45:02;100013.00;;;3.20
18782;BMP180;9519;51.890;8.970;2023-04-09T00:50:07;100036.00;;;3.10
18782;BMP180;9519;51.890;8.970;2023-04-09T00:55:10;99951.00;;;3.10
18782;BMP180;9519;51.890;8.970;2023-04-09T01:00:15;99998.00;;;3.00
18782;BMP180;9519;51.890;8.970;2023-04-09T01:05:17;100010.00;;;3.00
18782;BMP180;9519;51.890;8.970;2023-04-09T01:10:27;100021.00;;;2.90
18782;BMP180;9519;51.890;8.970;2023-04-09T01:15:37;100022.00;;;3.00
18782;BMP180;9519;51.890;8.970;2023-04-09T01:20:46;99986.00;;;2.90
18782;BMP180;9519;51.890;8.970;2023-04-09T01:26:02;100006.00;;;2.90
18782;BMP180;9519;51.890;8.970;2023-04-09T01:31:13;100014.00;;;2.80
18782;BMP180;9519;51.890;8.970;2023-04-09T01:36:16;99968.00;;;2.80
18782;BMP180;9519;51.890;8.970;2023-04-09T01:41:21;99978.00;;;2.70
18782;BMP180;9519;51.890;8.970;2023-04-09T01:46:25;99943.00;;;2.70
18782;BMP180;9519;51.890;8.970;2023-04-09T01:51:28;100004.00;;;2.60
18782;BMP180;9519;51.890;8.970;2023-04-09T01:56:40;99970.00;;;2.50
18782;BMP180;9519;51.890;8.970;2023-04-09T02:01:47;99969.00;;;2.50
18782;BMP180;9519;51.890;8.970;2023-04-09T02:06:58;99980.00;;;2.50
18782;BMP180;9519;51.890;8.970;2023-04-09T02:12:08;99941.00;;;2.40
18782;BMP180;9519;51.890;8.970;2023-04-09T02:17:13;99963.00;;;2.50
18782;BMP180;9519;51.890;8.970;2023-04-09T02:22:15;99960.00;;;2.50
18782;BMP180;9519;51.890;8.970;2023-04-09T02:27:18;99909.00;;;2.50
18782;BMP180;9519;51.890;8.970;2023-04-09T02:32:21;99952.00;;;2.60
18782;BMP180;9519;51.890;8.970;2023-04-09T02:37:23;99949.00;;;2.60
18782;BMP180;9519;51.890;8.970;2023-04-09T02:42:25;99942.00;;;2.70
18782;BMP180;9519;51.890;8.970;2023-04-09T02:47:28;99965.00;;;2.70
18782;BMP180;9519;51.890;8.970;2023-04-09T02:52:30;99976.00;;;2.80
18782;BMP180;9519;51.890;8.970;2023-04-09T02:57:32;99984.00;;;2.80
18782;BMP180;9519;51.890;8.970;2023-04-09T03:02:37;99949.00;;;2.80
18782;BMP180;9519;51.890;8.970;2023-04-09T03:07:39;99971.00;;;2.80
18782;BMP180;9519;51.890;8.970;2023-04-09T03:12:41;99965.00;;;2.80
18782;BMP180;9519;51.890;8.970;2023-04-09T03:17:45;99970.00;;;2.80
18782;BMP180;9519;51.890;8.970;2023-04-09T03:22:47;99954.00;;;2.80
18782;BMP180;9519;51.890;8.970;2023-04-09T03:27:49;99976.00;;;2.80
18782;BMP180;9519;51.890;8.970;2023-04-09T03:32:52;99941.00;;;2.80
18782;BMP180;9519;51.890;8.970;2023-04-09T03:37:57;99970.00;;;2.80
18782;BMP180;9519;51.890;8.970;2023-04-09T03:42:59;99939.00;;;2.80
18782;BMP180;9519;51.890;8.970;2023-04-09T03:48:02;99918.00;;;2.70
18782;BMP180;9519;51.890;8.970;2023-04-09T03:53:04;99931.00;;;2.70
18782;BMP180;9519;51.890;8.970;2023-04-09T03:58:06;99931.00;;;2.70
18782;BMP180;9519;51.890;8.970;2023-04-09T04:03:10;99875.00;;;2.60
18782;BMP180;9519;51.890;8.970;2023-04-09T04:08:14;99856.00;;;2.60
18782;BMP180;9519;51.890;8.970;2023-04-09T04:13:16;99906.00;;;2.50
18782;BMP180;9519;51.890;8.970;2023-04-09T04:18:19;99879.00;;;2.50
18782;BMP180;9519;51.890;8.970;2023-04-09T04:23:21;99887.00;;;2.50
18782;BMP180;9519;51.890;8.970;2023-04-09T04:28:23;99899.00;;;2.40
18782;BMP180;9519;51.890;8.970;2023-04-09T04:33:27;99868.00;;;2.40
18782;BMP180;9519;51.890;8.970;2023-04-09T04:38:29;99905.00;;;2.40
18782;BMP180;9519;51.890;8.970;2023-04-09T04:43:31;99895.00;;;2.40
18782;BMP180;9519;51.890;8.970;2023-04-09T04:48:34;99901.00;;;2.30
18782;BMP180;9519;51.890;8.970;2023-04-09T04:53:36;99826.00;;;2.30
18782;BMP180;9519;51.890;8.970;2023-04-09T04:58:38;99878.00;;;2.30
18782;BMP180;9519;51.890;8.970;2023-04-09T05:03:42;99872.00;;;2.20
18782;BMP180;9519;51.890;8.970;2023-04-09T05:08:44;99883.00;;;2.20
18782;BMP180;9519;51.890;8.970;2023-04-09T05:13:48;99888.00;;;2.20
18782;BMP180;9519;51.890;8.970;2023-04-09T05:18:51;99868.00;;;2.20
18782;BMP180;9519;51.890;8.970;2023-04-09T05:23:53;99892.00;;;2.20
18782;BMP180;9519;51.890;8.970;2023-04-09T05:28:55;99867.00;;;2.10
18782;BMP180;9519;51.890;8.970;2023-04-09T05:33:59;99876.00;;;2.10
18782;BMP180;9519;51.890;8.970;2023-04-09T05:39:01;99888.00;;;2.20
18782;BMP180;9519;51.890;8.970;2023-04-09T05:44:03;99882.00;;;2.20
18782;BMP180;9519;51.890;8.970;2023-04-09T05:49:06;99874.00;;;2.20
18782;BMP180;9519;51.890;8.970;2023-04-09T05:54:09;99879.00;;;2.30
18782;BMP180;9519;51.890;8.970;2023-04-09T05:59:11;99883.00;;;2.30
18782;BMP180;9519;51.890;8.970;2023-04-09T06:04:14;99903.00;;;2.40
18782;BMP180;9519;51.890;8.970;2023-04-09T06:09:16;99907.00;;;2.50
18782;BMP180;9519;51.890;8.970;2023-04-09T06:14:18;99928.00;;;2.60
18782;BMP180;9519;51.890;8.970;2023-04-09T06:19:22;99938.00;;;2.70
18782;BMP180;9519;51.890;8.970;2023-04-09T06:24:24;99950.00;;;2.80
18782;BMP180;9519;51.890;8.970;2023-04-09T06:29:26;99962.00;;;2.80
18782;BMP180;9519;51.890;8.970;2023-04-09T06:34:29;99969.00;;;2.80
18782;BMP180;9519;51.890;8.970;2023-04-09T06:39:31;99964.00;;;2.90
18782;BMP180;9519;51.890;8.970;2023-04-09T06:44:33;99970.00;;;2.90
18782;BMP180;9519;51.890;8.970;2023-04-09T06:49:37;99994.00;;;3.00
18782;BMP180;9519;51.890;8.970;2023-04-09T06:54:39;99982.00;;;3.00
18782;BMP180;9519;51.890;8.970;2023-04-09T06:59:42;100001.00;;;3.10
18782;BMP180;9519;51.890;8.970;2023-04-09T07:04:46;99997.00;;;3.20
18782;BMP180;9519;51.890;8.970;2023-04-09T07:09:49;100059.00;;;3.30
18782;BMP180;9519;51.890;8.970;2023-04-09T07:14:51;100032.00;;;3.50
18782;BMP180;9519;51.890;8.970;2023-04-09T07:19:54;100036.00;;;3.60
18782;BMP180;9519;51.890;8.970;2023-04-09T07:24:56;100054.00;;;3.70
18782;BMP180;9519;51.890;8.970;2023-04-09T07:29:59;100006.00;;;3.80
18782;BMP180;9519;51.890;8.970;2023-04-09T07:35:03;100066.00;;;3.90
18782;BMP180;9519;51.890;8.970;2023-04-09T07:40:07;100112.00;;;4.00
18782;BMP180;9519;51.890;8.970;2023-04-09T07:45:09;100099.00;;;4.20
18782;BMP180;9519;51.890;8.970;2023-04-09T07:50:14;100115.00;;;4.40
18782;BMP180;9519;51.890;8.970;2023-04-09T07:55:16;100134.00;;;4.50
18782;BMP180;9519;51.890;8.970;2023-04-09T08:00:20;100130.00;;;4.70
18782;BMP180;9519;51.890;8.970;2023-04-09T08:05:23;100146.00;;;4.80
18782;BMP180;9519;51.890;8.970;2023-04-09T08:10:25;100133.00;;;5.00
18782;BMP180;9519;51.890;8.970;2023-04-09T08:15:27;100169.00;;;5.10
18782;BMP180;9519;51.890;8.970;2023-04-09T08:20:31;100182.00;;;5.30
18782;BMP180;9519;51.890;8.970;2023-04-09T08:25:33;100196.00;;;5.50
18782;BMP180;9519;51.890;8.970;2023-04-09T08:30:37;100190.00;;;5.70
18782;BMP180;9519;51.890;8.970;2023-04-09T08:35:41;100190.00;;;6.00
18782;BMP180;9519;51.890;8.970;2023-04-09T08:40:43;100230.00;;;6.20
18782;BMP180;9519;51.890;8.970;2023-04-09T08:45:45;100229.00;;;6.50
18782;BMP180;9519;51.890;8.970;2023-04-09T08:50:49;100237.00;;;6.70
18782;BMP180;9519;51.890;8.970;2023-04-09T08:55:51;100253.00;;;7.00
18782;BMP180;9519;51.890;8.970;2023-04-09T09:00:53;100242.00;;;7.20
18782;BMP180;9519;51.890;8.970;2023-04-09T09:05:56;100248.00;;;7.60
18782;BMP180;9519;51.890;8.970;2023-04-09T09:10:59;100256.00;;;7.80
18782;BMP180;9519;51.890;8.970;2023-04-09T09:16:12;100256.00;;;7.90
18782;BMP180;9519;51.890;8.970;2023-04-09T09:21:17;100246.00;;;8.10
18782;BMP180;9519;51.890;8.970;2023-04-09T09:26:22;100246.00;;;8.40
18782;BMP180;9519;51.890;8.970;2023-04-09T09:31:25;100242.00;;;8.60
18782;BMP180;9519;51.890;8.970;2023-04-09T09:36:33;100260.00;;;8.90
18782;BMP180;9519;51.890;8.970;2023-04-09T09:41:36;100245.00;;;9.20
18782;BMP180;9519;51.890;8.970;2023-04-09T09:46:39;100258.00;;;9.40
18782;BMP180;9519;51.890;8.970;2023-04-09T09:51:43;100249.00;;;9.60
18782;BMP180;9519;51.890;8.970;2023-04-09T09:56:49;100243.00;;;9.80
18782;BMP180;9519;51.890;8.970;2023-04-09T10:01:59;100250.00;;;10.00
18782;BMP180;9519;51.890;8.970;2023-04-09T10:07:05;100243.00;;;10.10
18782;BMP180;9519;51.890;8.970;2023-04-09T10:12:09;100240.00;;;10.20
18782;BMP180;9519;51.890;8.970;2023-04-09T10:17:11;100232.00;;;10.10
18782;BMP180;9519;51.890;8.970;2023-04-09T10:22:20;100233.00;;;10.10
18782;BMP180;9519;51.890;8.970;2023-04-09T10:27:25;100232.00;;;10.20
18782;BMP180;9519;51.890;8.970;2023-04-09T10:32:34;100236.00;;;10.30
18782;BMP180;9519;51.890;8.970;2023-04-09T10:37:47;100235.00;;;10.40
18782;BMP180;9519;51.890;8.970;2023-04-09T10:42:50;100235.00;;;10.60
18782;BMP180;9519;51.890;8.970;2023-04-09T10:47:52;100234.00;;;10.70
18782;BMP180;9519;51.890;8.970;2023-04-09T10:52:57;100238.00;;;10.70
18782;BMP180;9519;51.890;8.970;2023-04-09T10:58:00;100227.00;;;10.80
18782;BMP180;9519;51.890;8.970;2023-04-09T11:03:20;100228.00;;;10.80
18782;BMP180;9519;51.890;8.970;2023-04-09T11:08:28;100235.00;;;10.90
18782;BMP180;9519;51.890;8.970;2023-04-09T11:13:31;100224.00;;;11.00
18782;BMP180;9519;51.890;8.970;2023-04-09T11:18:34;100221.00;;;11.00
18782;BMP180;9519;51.890;8.970;2023-04-09T11:23:52;100225.00;;;11.10
18782;BMP180;9519;51.890;8.970;2023-04-09T11:28:55;100225.00;;;11.10
18782;BMP180;9519;51.890;8.970;2023-04-09T11:33:58;100222.00;;;11.10
18782;BMP180;9519;51.890;8.970;2023-04-09T11:39:03;100225.00;;;11.00
18782;BMP180;9519;51.890;8.970;2023-04-09T11:44:07;100217.00;;;11.00
18782;BMP180;9519;51.890;8.970;2023-04-09T11:49:09;100217.00;;;11.10
18782;BMP180;9519;51.890;8.970;2023-04-09T11:54:14;100209.00;;;11.10
18782;BMP180;9519;51.890;8.970;2023-04-09T11:59:16;100212.00;;;11.20
18782;BMP180;9519;51.890;8.970;2023-04-09T12:04:19;100218.00;;;11.20
18782;BMP180;9519;51.890;8.970;2023-04-09T12:09:23;100209.00;;;11.30
18782;BMP180;9519;51.890;8.970;2023-04-09T12:14:27;100203.00;;;11.40
18782;BMP180;9519;51.890;8.970;2023-04-09T12:19:29;100211.00;;;11.50
18782;BMP180;9519;51.890;8.970;2023-04-09T12:24:32;100207.00;;;11.60
18782;BMP180;9519;51.890;8.970;2023-04-09T12:29:34;100208.00;;;11.80
18782;BMP180;9519;51.890;8.970;2023-04-09T12:34:36;100194.00;;;12.00
18782;BMP180;9519;51.890;8.970;2023-04-09T12:39:40;100191.00;;;12.30
18782;BMP180;9519;51.890;8.970;2023-04-09T12:44:42;100200.00;;;12.40
18782;BMP180;9519;51.890;8.970;2023-04-09T12:49:44;100188.00;;;12.60
18782;BMP180;9519;51.890;8.970;2023-04-09T12:54:47;100183.00;;;12.80
18782;BMP180;9519;51.890;8.970;2023-04-09T12:59:49;100185.00;;;12.90
18782;BMP180;9519;51.890;8.970;2023-04-09T13:04:51;100176.00;;;13.00
18782;BMP180;9519;51.890;8.970;2023-04-09T13:09:55;100165.00;;;13.10
18782;BMP180;9519;51.890;8.970;2023-04-09T13:14:57;100165.00;;;13.10
18782;BMP180;9519;51.890;8.970;2023-04-09T13:20:00;100157.00;;;13.20
18782;BMP180;9519;51.890;8.970;2023-04-09T13:25:04;100160.00;;;13.30
18782;BMP180;9519;51.890;8.970;2023-04-09T13:30:08;100142.00;;;13.30
18782;BMP180;9519;51.890;8.970;2023-04-09T13:35:10;100139.00;;;13.30
18782;BMP180;9519;51.890;8.970;2023-04-09T13:40:13;100140.00;;;13.30
18782;BMP180;9519;51.890;8.970;2023-04-09T13:45:16;100142.00;;;13.10
18782;BMP180;9519;51.890;8.970;2023-04-09T13:50:19;100143.00;;;13.10
18782;BMP180;9519;51.890;8.970;2023-04-09T13:55:23;100137.00;;;13.00
18782;BMP180;9519;51.890;8.970;2023-04-09T14:00:25;100133.00;;;12.80
18782;BMP180;9519;51.890;8.970;2023-04-09T14:05:28;100134.00;;;12.70
18782;BMP180;9519;51.890;8.970;2023-04-09T14:10:31;100130.00;;;12.60
18782;BMP180;9519;51.890;8.970;2023-04-09T14:15:33;100129.00;;;12.50
18782;BMP180;9519;51.890;8.970;2023-04-09T14:20:35;100133.00;;;12.50
18782;BMP180;9519;51.890;8.970;2023-04-09T14:25:39;100132.00;;;12.50
18782;BMP180;9519;51.890;8.970;2023-04-09T14:30:41;100121.00;;;12.50
18782;BMP180;9519;51.890;8.970;2023-04-09T14:35:43;100111.00;;;12.50
18782;BMP180;9519;51.890;8.970;2023-04-09T14:40:47;100119.00;;;12.50
18782;BMP180;9519;51.890;8.970;2023-04-09T14:45:49;100108.00;;;12.60
18782;BMP180;9519;51.890;8.970;2023-04-09T14:50:51;100107.00;;;12.70
18782;BMP180;9519;51.890;8.970;2023-04-09T14:55:54;100098.00;;;12.70
18782;BMP180;9519;51.890;8.970;2023-04-09T15:00:56;100103.00;;;12.70
18782;BMP180;9519;51.890;8.970;2023-04-09T15:05:59;100103.00;;;12.70
18782;BMP180;9519;51.890;8.970;2023-04-09T15:11:03;100086.00;;;12.70
18782;BMP180;9519;51.890;8.970;2023-04-09T15:16:06;100079.00;;;12.70
18782;BMP180;9519;51.890;8.970;2023-04-09T15:21:08;100075.00;;;12.70
18782;BMP180;9519;51.890;8.970;2023-04-09T15:26:11;100067.00;;;12.60
18782;BMP180;9519;51.890;8.970;2023-04-09T15:31:14;100076.00;;;12.60
18782;BMP180;9519;51.890;8.970;2023-04-09T15:36:16;100069.00;;;12.80
18782;BMP180;9519;51.890;8.970;2023-04-09T15:41:19;100076.00;;;12.80
18782;BMP180;9519;51.890;8.970;2023-04-09T15:46:23;100065.00;;;12.80
18782;BMP180;9519;51.890;8.970;2023-04-09T15:51:25;100057.00;;;12.90
18782;BMP180;9519;51.890;8.970;2023-04-09T15:56:29;100057.00;;;13.40
18782;BMP180;9519;51.890;8.970;2023-04-09T16:01:32;100062.00;;;13.60
18782;BMP180;9519;51.890;8.970;2023-04-09T16:06:34;100060.00;;;13.70
18782;BMP180;9519;51.890;8.970;2023-04-09T16:11:37;100043.00;;;13.60
18782;BMP180;9519;51.890;8.970;2023-04-09T16:16:40;100053.00;;;13.60
18782;BMP180;9519;51.890;8.970;2023-04-09T16:21:46;100045.00;;;13.60
18782;BMP180;9519;51.890;8.970;2023-04-09T16:26:50;100044.00;;;13.60
18782;BMP180;9519;51.890;8.970;2023-04-09T16:31:52;100050.00;;;13.50
18782;BMP180;9519;51.890;8.970;2023-04-09T16:36:54;100036.00;;;13.50
18782;BMP180;9519;51.890;8.970;2023-04-09T16:41:58;100041.00;;;13.40
18782;BMP180;9519;51.890;8.970;2023-04-09T16:47:01;100043.00;;;13.30
18782;BMP180;9519;51.890;8.970;2023-04-09T16:52:03;100034.00;;;13.20
18782;BMP180;9519;51.890;8.970;2023-04-09T16:57:06;100042.00;;;13.20
18782;BMP180;9519;51.890;8.970;2023-04-09T17:02:09;100050.00;;;13.20
18782;BMP180;9519;51.890;8.970;2023-04-09T17:07:11;100050.00;;;13.20
18782;BMP180;9519;51.890;8.970;2023-04-09T17:12:14;100040.00;;;13.10
18782;BMP180;9519;51.890;8.970;2023-04-09T17:17:20;100041.00;;;13.10
18782;BMP180;9519;51.890;8.970;2023-04-09T17:22:22;100051.00;;;13.00
18782;BMP180;9519;51.890;8.970;2023-04-09T17:27:25;100054.00;;;13.00
18782;BMP180;9519;51.890;8.970;2023-04-09T17:32:27;100051.00;;;12.90
18782;BMP180;9519;51.890;8.970;2023-04-09T17:37:30;100044.00;;;12.80
18782;BMP180;9519;51.890;8.970;2023-04-09T17:42:33;100054.00;;;12.70
18782;BMP180;9519;51.890;8.970;2023-04-09T17:47:35;100043.00;;;12.50
18782;BMP180;9519;51.890;8.970;2023-04-09T17:52:38;100046.00;;;12.30
18782;BMP180;9519;51.890;8.970;2023-04-09T17:57:42;100033.00;;;12.10
18782;BMP180;9519;51.890;8.970;2023-04-09T18:02:44;100056.00;;;11.90
18782;BMP180;9519;51.890;8.970;2023-04-09T18:07:46;100058.00;;;11.60
18782;BMP180;9519;51.890;8.970;2023-04-09T18:12:49;100040.00;;;11.50
18782;BMP180;9519;51.890;8.970;2023-04-09T18:17:52;100037.00;;;11.30
18782;BMP180;9519;51.890;8.970;2023-04-09T18:22:54;100042.00;;;11.00
18782;BMP180;9519;51.890;8.970;2023-04-09T18:27:57;100032.00;;;10.80
18782;BMP180;9519;51.890;8.970;2023-04-09T18:32:59;100034.00;;;10.60
18782;BMP180;9519;51.890;8.970;2023-04-09T18:38:01;100039.00;;;10.20
18782;BMP180;9519;51.890;8.970;2023-04-09T18:43:05;100017.00;;;10.10
18782;BMP180;9519;51.890;8.970;2023-04-09T18:48:07;100028.00;;;9.90
18782;BMP180;9519;51.890;8.970;2023-04-09T18:53:09;100049.00;;;9.70
18782;BMP180;9519;51.890;8.970;2023-04-09T18:58:12;100049.00;;;9.60
18782;BMP180;9519;51.890;8.970;2023-04-09T19:03:15;100054.00;;;9.40
18782;BMP180;9519;51.890;8.970;2023-04-09T19:08:18;100052.00;;;9.30
18782;BMP180;9519;51.890;8.970;2023-04-09T19:13:22;100058.00;;;9.20
18782;BMP180;9519;51.890;8.970;2023-04-09T19:18:24;100059.00;;;9.00
18782;BMP180;9519;51.890;8.970;2023-04-09T19:23:26;100050.00;;;8.80
18782;BMP180;9519;51.890;8.970;2023-04-09T19:28:31;100034.00;;;8.70
18782;BMP180;9519;51.890;8.970;2023-04-09T19:33:33;100043.00;;;8.50
18782;BMP180;9519;51.890;8.970;2023-04-09T19:38:35;100033.00;;;8.30
18782;BMP180;9519;51.890;8.970;2023-04-09T19:43:38;100032.00;;;8.20
18782;BMP180;9519;51.890;8.970;2023-04-09T19:48:41;100047.00;;;8.10
18782;BMP180;9519;51.890;8.970;2023-04-09T19:53:44;100046.00;;;7.90
18782;BMP180;9519;51.890;8.970;2023-04-09T19:58:47;100044.00;;;7.80
18782;BMP180;9519;51.890;8.970;2023-04-09T20:03:49;100053.00;;;7.70
18782;BMP180;9519;51.890;8.970;2023-04-09T20:08:51;100049.00;;;7.70
18782;BMP180;9519;51.890;8.970;2023-04-09T20:13:57;100042.00;;;7.60
18782;BMP180;9519;51.890;8.970;2023-04-09T20:18:59;100057.00;;;7.50
18782;BMP180;9519;51.890;8.970;2023-04-09T20:24:01;100026.00;;;7.40
18782;BMP180;9519;51.890;8.970;2023-04-09T20:29:04;100038.00;;;7.30
18782;BMP180;9519;51.890;8.970;2023-04-09T20:34:07;100028.00;;;7.20
18782;BMP180;9519;51.890;8.970;2023-04-09T20:39:09;100021.00;;;7.10
18782;BMP180;9519;51.890;8.970;2023-04-09T20:44:13;100007.00;;;7.00
18782;BMP180;9519;51.890;8.970;2023-04-09T20:49:15;100009.00;;;6.90
18782;BMP180;9519;51.890;8.970;2023-04-09T20:54:17;100007.00;;;6.80
18782;BMP180;9519;51.890;8.970;2023-04-09T20:59:23;99999.00;;;6.70
18782;BMP180;9519;51.890;8.970;2023-04-09T21:04:25;99985.00;;;6.50
18782;BMP180;9519;51.890;8.970;2023-04-09T21:09:28;99982.00;;;6.40
18782;BMP180;9519;51.890;8.970;2023-04-09T21:14:32;99978.00;;;6.30
18782;BMP180;9519;51.890;8.970;2023-04-09T21:19:34;99982.00;;;6.20
18782;BMP180;9519;51.890;8.970;2023-04-09T21:24:36;99968.00;;;6.20
18782;BMP180;9519;51.890;8.970;2023-04-09T21:29:40;99964.00;;;6.20
18782;BMP180;9519;51.890;8.970;2023-04-09T21:34:42;99968.00;;;6.10
18782;BMP180;9519;51.890;8.970;2023-04-09T21:39:44;99967.00;;;6.00
18782;BMP180;9519;51.890;8.970;2023-04-09T21:44:49;99950.00;;;5.90
18782;BMP180;9519;51.890;8.970;2023-04-09T21:49:51;99948.00;;;5.80
18782;BMP180;9519;51.890;8.970;2023-04-09T21:54:53;99968.00;;;5.70
18782;BMP180;9519;51.890;8.970;2023-04-09T21:59:57;99952.00;;;5.70
18782;BMP180;9519;51.890;8.970;2023-04-09T22:05:00;99954.00;;;5.60
18782;BMP180;9519;51.890;8.970;2023-04-09T22:10:02;99965.00;;;5.50
18782;BMP180;9519;51.890;8.970;2023-04-09T22:15:06;99965.00;;;5.40
18782;BMP180;9519;51.890;8.970;2023-04-09T22:20:09;99935.00;;;5.40
18782;BMP180;9519;51.890;8.970;2023-04-09T22:25:11;99924.00;;;5.20
18782;BMP180;9519;51.890;8.970;2023-04-09T22:30:15;99901.00;;;5.10
18782;BMP180;9519;51.890;8.970;2023-04-09T22:35:17;99890.00;;;5.00
18782;BMP180;9519;51.890;8.970;2023-04-09T22:40:19;99892.00;;;4.90
18782;BMP180;9519;51.890;8.970;2023-04-09T22:45:22;99874.00;;;4.70
18782;BMP180;9519;51.890;8.970;2023-04-09T22:50:27;99865.00;;;4.70
18782;BMP180;9519;51.890;8.970;2023-04-09T22:55:29;99869.00;;;4.60
18782;BMP180;9519;51.890;8.970;2023-04-09T23:00:33;99855.00;;;4.50
18782;BMP180;9519;51.890;8.970;2023-04-09T23:05:35;99867.00;;;4.50
18782;BMP180;9519;51.890;8.970;2023-04-09T23:10:37;99871.00;;;4.40
18782;BMP180;9519;51.890;8.970;2023-04-09T23:15:41;99859.00;;;4.50
18782;BMP180;9519;51.890;8.970;2023-04-09T23:20:43;99874.00;;;4.40
18782;BMP180;9519;51.890;8.970;2023-04-09T23:25:45;99883.00;;;4.40
18782;BMP180;9519;51.890;8.970;2023-04-09T23:30:48;99888.00;;;4.40
18782;BMP180;9519;51.890;8.970;2023-04-09T23:35:50;99875.00;;;4.40
18782;BMP180;9519;51.890;8.970;2023-04-09T23:40:52;99888.00;;;4.40
18782;BMP180;9519;51.890;8.970;2023-04-09T23:45:56;99877.00;;;4.30
18782;BMP180;9519;51.890;8.970;2023-04-09T23:50:58;99868.00;;;4.30
18782;BMP180;9519;51.890;8.970;2023-04-09T23:56:00;99850.00;;;4.20
